Time;durP1;ratioP1;P1;durP2;ratioP2;P2;SDS_P1;SDS_P2;PMS_P1;PMS_P2;Temp;Humidity;BMP_temperature;BMP_pressure;BME280_temperature;BME280_humidity;BME280_pressure;Samples;Min_cycle;Max_cycle;Signal;HPM_P1;HPM_P2
2022/11/06 00:00:49;;;;;;;14.48;4.75;;;;;;;;;;5015786;28;20037;-80
2022/11/06 00:03:15;;;;;;;11.98;5.05;;;;;;;;;;5014550;28;20022;-80
2022/11/06 00:08:36;;;;;;;7.75;4.85;;;;;;;;;;5016002;28;20112;-80
2022/11/06 00:11:13;;;;;;;13.00;5.22;;;;;;;;;;5015515;28;20034;-80
2022/11/06 00:13:40;;;;;;;13.25;4.88;;;;;;;;;;5015116;28;20041;-80
2022/11/06 00:16:07;;;;;;;12.60;5.28;;;;;;;;;;5014952;28;20026;-80
2022/11/06 00:18:33;;;;;;;15.05;4.88;;;;;;;;;;5016006;28;20076;-80
2022/11/06 00:21:05;;;;;;;10.15;4.65;;;;;;;;;;5015559;28;20113;-80
2022/11/06 00:23:31;;;;;;;11.70;4.97;;;;;;;;;;5015516;28;20080;-79
2022/11/06 00:25:57;;;;;;;14.50;4.75;;;;;;;;;;5014974;28;20049;-79
2022/11/06 00:28:23;;;;;;;11.93;4.80;;;;;;;;;;5015218;28;20490;-81
2022/11/06 00:30:49;;;;;;;17.15;5.15;;;;;;;;;;5013636;28;20106;-80
2022/11/06 00:33:15;;;;;;;9.90;4.88;;;;;;;;;;5014983;28;20030;-80
2022/11/06 00:35:41;;;;;;;9.38;5.40;;;;;;;;;;5013355;28;20389;-80
2022/11/06 00:38:07;;;;;;;10.73;4.60;;;;;;;;;;5013694;28;20479;-80
2022/11/06 00:40:34;;;;;;;13.43;4.90;;;;;;;;;;5015058;28;20056;-79
2022/11/06 00:43:00;;;;;;;12.70;4.93;;;;;;;;;;5014930;28;20022;-80
2022/11/06 00:45:26;;;;;;;12.35;4.63;;;;;;;;;;5015069;28;20033;-79
2022/11/06 00:47:52;;;;;;;11.05;5.57;;;;;;;;;;5014771;28;20034;-80
2022/11/06 00:50:18;;;;;;;15.02;6.03;;;;;;;;;;5014963;28;20037;-80
2022/11/06 00:52:44;;;;;;;11.77;4.40;;;;;;;;;;5014849;28;20033;-79
2022/11/06 00:55:10;;;;;;;12.23;4.82;;;;;;;;;;5033109;28;20044;-79
2022/11/06 00:57:36;;;;;;;13.88;4.95;;;;;;;;;;5034687;28;20021;-80
2022/11/06 01:00:03;;;;;;;15.32;4.50;;;;;;;;;;5015277;28;20075;-80
2022/11/06 01:02:29;;;;;;;11.88;4.80;;;;;;;;;;5033126;28;20030;-80
2022/11/06 01:04:55;;;;;;;18.58;5.03;;;;;;;;;;5031432;28;20025;-79
2022/11/06 01:07:22;;;;;;;14.70;4.53;;;;;;;;;;5034387;28;20033;-80
2022/11/06 01:09:48;;;;;;;14.30;5.60;;;;;;;;;;5016773;28;20029;-80
2022/11/06 01:12:15;;;;;;;11.15;4.57;;;;;;;;;;5000102;28;20036;-80
2022/11/06 01:14:42;;;;;;;8.90;4.10;;;;;;;;;;5034117;28;20030;-79
2022/11/06 01:17:08;;;;;;;11.07;4.40;;;;;;;;;;5016365;28;20087;-80
2022/11/06 01:19:34;;;;;;;13.80;4.95;;;;;;;;;;5034134;28;20039;-80
2022/11/06 01:22:00;;;;;;;10.05;4.20;;;;;;;;;;5016331;28;20136;-80
2022/11/06 01:24:27;;;;;;;13.52;4.57;;;;;;;;;;5016093;28;20380;-79
2022/11/06 01:26:53;;;;;;;9.48;4.25;;;;;;;;;;5034084;28;20033;-80
2022/11/06 01:29:19;;;;;;;12.95;5.40;;;;;;;;;;5034005;28;20021;-80
2022/11/06 01:31:48;;;;;;;11.23;4.50;;;;;;;;;;5016271;28;20121;-79
2022/11/06 01:34:14;;;;;;;13.95;3.92;;;;;;;;;;5033846;28;20417;-79
2022/11/06 01:36:40;;;;;;;12.25;4.32;;;;;;;;;;5015962;28;20025;-80
2022/11/06 01:39:07;;;;;;;9.02;3.90;;;;;;;;;;5033747;28;20112;-80
2022/11/06 01:41:35;;;;;;;16.98;4.13;;;;;;;;;;5033685;28;20071;-80
2022/11/06 01:44:01;;;;;;;12.82;4.20;;;;;;;;;;5033304;28;20047;-80
2022/11/06 01:46:29;;;;;;;16.27;4.35;;;;;;;;;;5033508;28;20128;-80
2022/11/06 01:48:55;;;;;;;10.18;3.67;;;;;;;;;;5015798;28;20075;-80
2022/11/06 01:51:21;;;;;;;10.27;4.10;;;;;;;;;;5033667;28;20521;-80
2022/11/06 01:53:47;;;;;;;13.48;4.45;;;;;;;;;;5012232;28;20060;-80
2022/11/06 01:56:14;;;;;;;19.85;3.95;;;;;;;;;;5013554;28;20554;-80
2022/11/06 01:58:42;;;;;;;15.85;3.78;;;;;;;;;;5013551;28;20018;-79
2022/11/06 02:01:08;;;;;;;15.38;3.88;;;;;;;;;;5013405;28;20426;-79
2022/11/06 02:03:35;;;;;;;12.23;3.55;;;;;;;;;;5013708;28;20026;-79
2022/11/06 02:06:02;;;;;;;11.43;3.97;;;;;;;;;;5032799;28;20057;-80
2022/11/06 02:08:28;;;;;;;9.55;3.75;;;;;;;;;;5033675;28;21151;-80
2022/11/06 02:10:54;;;;;;;13.90;4.10;;;;;;;;;;5022897;28;20021;-80
2022/11/06 02:13:52;;;;;;;15.40;4.13;;;;;;;;;;5013411;28;20049;-80
2022/11/06 02:16:24;;;;;;;12.07;3.75;;;;;;;;;;4980172;28;20117;-80
2022/11/06 02:19:00;;;;;;;11.52;3.92;;;;;;;;;;5012624;28;20022;-80
2022/11/06 02:21:51;;;;;;;13.10;3.72;;;;;;;;;;5012728;28;20471;-80
2022/11/06 02:24:17;;;;;;;9.65;4.07;;;;;;;;;;5031282;28;20045;-79
2022/11/06 02:27:02;;;;;;;10.50;3.65;;;;;;;;;;5032638;28;20614;-79
2022/11/06 02:29:46;;;;;;;10.13;3.60;;;;;;;;;;5032771;28;20033;-79
2022/11/06 02:32:21;;;;;;;8.88;3.13;;;;;;;;;;5032537;28;20028;-80
2022/11/06 02:34:49;;;;;;;12.88;3.90;;;;;;;;;;5032000;28;20034;-79
2022/11/06 02:37:18;;;;;;;15.60;4.13;;;;;;;;;;5031933;28;20076;-79
2022/11/06 02:39:45;;;;;;;8.48;3.33;;;;;;;;;;5032549;28;20018;-80
2022/11/06 02:42:12;;;;;;;13.25;3.15;;;;;;;;;;5032562;28;20043;-80
2022/11/06 02:44:39;;;;;;;15.82;3.72;;;;;;;;;;5014451;28;20067;-80
2022/11/06 02:47:07;;;;;;;11.00;3.60;;;;;;;;;;5032037;28;20108;-79
2022/11/06 02:49:42;;;;;;;7.15;3.05;;;;;;;;;;5031031;28;20476;-80
2022/11/06 02:52:13;;;;;;;11.40;2.95;;;;;;;;;;5031568;28;20025;-79
2022/11/06 02:54:42;;;;;;;13.10;3.15;;;;;;;;;;5000270;28;20041;-79
2022/11/06 02:57:13;;;;;;;11.98;3.15;;;;;;;;;;4994900;28;20384;-79
2022/11/06 03:00:05;;;;;;;7.20;2.80;;;;;;;;;;5005241;28;20426;-79
2022/11/06 03:02:44;;;;;;;12.73;3.35;;;;;;;;;;5028058;28;20427;-79
2022/11/06 03:05:13;;;;;;;10.30;3.58;;;;;;;;;;5013063;28;20029;-79
2022/11/06 03:07:51;;;;;;;10.25;2.60;;;;;;;;;;5014360;28;20030;-79
2022/11/06 03:10:18;;;;;;;9.68;2.88;;;;;;;;;;5032020;28;20676;-79
2022/11/06 03:12:55;;;;;;;12.13;2.80;;;;;;;;;;5032166;28;20059;-79
2022/11/06 03:15:27;;;;;;;9.00;3.08;;;;;;;;;;5032014;28;20026;-78
2022/11/06 03:17:59;;;;;;;8.68;2.50;;;;;;;;;;5032700;28;20029;-80
2022/11/06 03:20:30;;;;;;;15.80;3.28;;;;;;;;;;5031976;28;20017;-79
2022/11/06 03:23:10;;;;;;;9.63;2.80;;;;;;;;;;5032045;28;20065;-80
2022/11/06 03:25:56;;;;;;;7.97;2.75;;;;;;;;;;5014097;28;20045;-79
2022/11/06 03:28:27;;;;;;;9.50;2.80;;;;;;;;;;5031650;28;20396;-79
2022/11/06 03:30:55;;;;;;;13.15;3.00;;;;;;;;;;5031845;28;20029;-79
2022/11/06 03:33:33;;;;;;;10.07;2.85;;;;;;;;;;5032214;28;20034;-79
2022/11/06 03:36:02;;;;;;;14.23;2.63;;;;;;;;;;5030961;28;20472;-79
2022/11/06 03:38:40;;;;;;;17.13;2.75;;;;;;;;;;5030983;28;20371;-80
2022/11/06 03:41:25;;;;;;;9.95;3.08;;;;;;;;;;5012998;28;20022;-80
2022/11/06 03:43:52;;;;;;;13.20;2.85;;;;;;;;;;5030919;28;20026;-79
2022/11/06 03:46:23;;;;;;;13.40;2.67;;;;;;;;;;5012811;28;20044;-79
2022/11/06 03:48:52;;;;;;;11.68;3.10;;;;;;;;;;5031674;28;20430;-79
2022/11/06 03:51:21;;;;;;;12.18;2.72;;;;;;;;;;5017899;28;20033;-79
2022/11/06 03:53:54;;;;;;;8.65;2.63;;;;;;;;;;5028847;28;20403;-79
2022/11/06 03:56:28;;;;;;;10.48;2.45;;;;;;;;;;5016085;28;20469;-79
2022/11/06 03:58:55;;;;;;;10.32;2.92;;;;;;;;;;5015977;28;20105;-80
2022/11/06 04:01:24;;;;;;;11.80;2.45;;;;;;;;;;5015778;28;20464;-79
2022/11/06 04:04:02;;;;;;;12.07;2.78;;;;;;;;;;5016624;28;20079;-79
2022/11/06 04:06:31;;;;;;;11.00;2.97;;;;;;;;;;5033505;28;20025;-78
2022/11/06 04:14:32;;;;;;;11.93;2.95;;;;;;;;;;5035692;28;20067;-79
2022/11/06 04:17:01;;;;;;;8.52;2.20;;;;;;;;;;5035767;28;20017;-79
2022/11/06 04:19:27;;;;;;;8.93;2.22;;;;;;;;;;5035181;28;20475;-80
2022/11/06 04:22:00;;;;;;;11.30;2.40;;;;;;;;;;5035078;28;20521;-79
2022/11/06 04:27:35;;;;;;;14.35;2.88;;;;;;;;;;5035306;28;20426;-79
2022/11/06 04:30:12;;;;;;;8.80;2.55;;;;;;;;;;5035122;28;20030;-79
2022/11/06 04:32:50;;;;;;;15.30;2.97;;;;;;;;;;5034995;28;20026;-79
2022/11/06 04:35:34;;;;;;;9.60;2.47;;;;;;;;;;5034801;28;20079;-80
2022/11/06 04:38:14;;;;;;;8.43;2.30;;;;;;;;;;5034800;28;20026;-79
2022/11/06 04:40:43;;;;;;;7.57;1.77;;;;;;;;;;5016955;28;20021;-80
2022/11/06 04:43:18;;;;;;;10.38;2.33;;;;;;;;;;5034776;28;20029;-80
2022/11/06 04:45:47;;;;;;;12.15;2.47;;;;;;;;;;5034589;28;20029;-79
2022/11/06 04:48:13;;;;;;;19.73;2.40;;;;;;;;;;5034574;28;20028;-79
2022/11/06 04:50:42;;;;;;;10.73;2.40;;;;;;;;;;5034547;28;20440;-80
2022/11/06 04:53:10;;;;;;;16.52;2.50;;;;;;;;;;5016873;28;20032;-80
2022/11/06 04:55:47;;;;;;;13.75;2.92;;;;;;;;;;5034514;28;20040;-80
2022/11/06 04:58:14;;;;;;;8.85;1.90;;;;;;;;;;5034812;28;20024;-79
2022/11/06 05:00:42;;;;;;;7.50;2.05;;;;;;;;;;5033939;28;20024;-80
2022/11/06 05:03:08;;;;;;;11.05;2.33;;;;;;;;;;5034533;28;20075;-79
2022/11/06 05:05:34;;;;;;;11.65;2.28;;;;;;;;;;5033715;28;20037;-79
2022/11/06 05:08:00;;;;;;;7.05;2.13;;;;;;;;;;5008549;28;20026;-80
2022/11/06 05:10:26;;;;;;;8.13;2.33;;;;;;;;;;5019783;28;20036;-79
2022/11/06 05:12:52;;;;;;;6.80;2.35;;;;;;;;;;5016293;28;20126;-80
2022/11/06 05:15:18;;;;;;;12.63;2.50;;;;;;;;;;5016556;28;20125;-79
2022/11/06 05:17:44;;;;;;;9.98;2.35;;;;;;;;;;5034495;28;20026;-79
2022/11/06 05:20:10;;;;;;;10.68;2.35;;;;;;;;;;5034293;28;20026;-80
2022/11/06 05:25:25;;;;;;;10.55;2.72;;;;;;;;;;5033988;28;20060;-80
2022/11/06 05:27:51;;;;;;;9.40;2.08;;;;;;;;;;5033889;28;20369;-78
2022/11/06 05:30:17;;;;;;;10.02;2.15;;;;;;;;;;5016216;28;20029;-79
2022/11/06 05:32:44;;;;;;;13.23;1.88;;;;;;;;;;5033875;28;20034;-80
2022/11/06 05:35:10;;;;;;;8.50;2.40;;;;;;;;;;5033702;28;20033;-80
2022/11/06 05:37:36;;;;;;;11.50;2.28;;;;;;;;;;5033609;28;20034;-80
2022/11/06 05:40:02;;;;;;;9.23;2.45;;;;;;;;;;5033729;28;20034;-80
2022/11/06 05:42:29;;;;;;;15.25;2.45;;;;;;;;;;5033813;28;20443;-80
2022/11/06 05:44:55;;;;;;;6.75;2.00;;;;;;;;;;5016257;28;20087;-79
2022/11/06 05:47:21;;;;;;;6.97;2.03;;;;;;;;;;5015749;28;20033;-79
2022/11/06 05:49:47;;;;;;;9.32;2.20;;;;;;;;;;5016015;28;20057;-80
2022/11/06 05:52:13;;;;;;;10.98;2.20;;;;;;;;;;5033385;28;20033;-80
2022/11/06 05:54:39;;;;;;;10.20;2.42;;;;;;;;;;5033671;28;20385;-77
2022/11/06 05:57:05;;;;;;;8.38;1.80;;;;;;;;;;5033595;28;20483;-79
2022/11/06 05:59:31;;;;;;;12.10;2.13;;;;;;;;;;5033489;28;20035;-80
2022/11/06 06:01:58;;;;;;;10.20;1.75;;;;;;;;;;5016240;28;20042;-79
2022/11/06 06:04:24;;;;;;;9.13;1.90;;;;;;;;;;5032926;28;20030;-79
2022/11/06 06:06:51;;;;;;;7.63;2.25;;;;;;;;;;5033237;28;20021;-80
2022/11/06 06:09:17;;;;;;;11.00;2.40;;;;;;;;;;5015167;28;20037;-80
2022/11/06 06:11:43;;;;;;;9.32;1.90;;;;;;;;;;5032912;28;20022;-79
2022/11/06 06:14:09;;;;;;;7.70;2.00;;;;;;;;;;5032978;28;20032;-80
2022/11/06 06:16:35;;;;;;;7.53;2.00;;;;;;;;;;5015990;28;20022;-80
2022/11/06 06:19:01;;;;;;;7.32;2.10;;;;;;;;;;5033149;28;20025;-80
2022/11/06 06:21:27;;;;;;;10.30;2.22;;;;;;;;;;5033129;28;20084;-79
2022/11/06 06:23:53;;;;;;;12.77;2.15;;;;;;;;;;5016008;28;20040;-79
2022/11/06 06:26:19;;;;;;;7.35;2.05;;;;;;;;;;4979419;28;20049;-80
2022/11/06 06:28:48;;;;;;;10.25;2.03;;;;;;;;;;5013134;28;20022;-80
2022/11/06 06:31:14;;;;;;;7.72;2.20;;;;;;;;;;5013185;28;20026;-80
2022/11/06 06:33:40;;;;;;;8.73;2.00;;;;;;;;;;4995656;28;20030;-80
2022/11/06 06:36:06;;;;;;;9.85;1.65;;;;;;;;;;5012930;28;20042;-80
2022/11/06 06:38:32;;;;;;;9.45;2.28;;;;;;;;;;4995868;28;20076;-80
2022/11/06 06:41:06;;;;;;;13.23;2.13;;;;;;;;;;4995864;28;20053;-80
2022/11/06 06:43:32;;;;;;;11.40;2.92;;;;;;;;;;5013672;28;20081;-79
2022/11/06 06:46:02;;;;;;;9.57;2.47;;;;;;;;;;5013047;28;20030;-80
2022/11/06 06:48:28;;;;;;;8.73;2.00;;;;;;;;;;5013018;28;20038;-79
2022/11/06 06:50:57;;;;;;;10.68;2.85;;;;;;;;;;5013561;28;20026;-80
2022/11/06 06:53:23;;;;;;;11.10;1.98;;;;;;;;;;4995371;28;20124;-80
2022/11/06 06:55:49;;;;;;;9.82;2.30;;;;;;;;;;5012989;28;20099;-80
2022/11/06 06:58:16;;;;;;;12.00;2.38;;;;;;;;;;5012855;28;20022;-79
2022/11/06 07:00:42;;;;;;;10.75;2.17;;;;;;;;;;5012829;28;20072;-79
2022/11/06 07:03:08;;;;;;;7.20;2.50;;;;;;;;;;5012907;28;20032;-80
2022/11/06 07:05:34;;;;;;;7.15;2.20;;;;;;;;;;5028579;28;20062;-80
2022/11/06 07:08:00;;;;;;;9.23;2.03;;;;;;;;;;5033041;28;20021;-80
2022/11/06 07:10:26;;;;;;;7.85;2.28;;;;;;;;;;5030672;28;20048;-80
2022/11/06 07:12:52;;;;;;;5.32;1.98;;;;;;;;;;5031522;28;20430;-80
2022/11/06 07:15:18;;;;;;;7.53;1.80;;;;;;;;;;5030834;28;20430;-80
2022/11/06 07:17:44;;;;;;;7.35;2.38;;;;;;;;;;5031254;28;20484;-80
2022/11/06 07:20:10;;;;;;;10.23;2.03;;;;;;;;;;5031052;28;20033;-79
2022/11/06 07:22:37;;;;;;;9.02;2.17;;;;;;;;;;5032244;28;20153;-78
2022/11/06 07:25:03;;;;;;;6.18;1.85;;;;;;;;;;5034888;28;20053;-79
2022/11/06 07:27:29;;;;;;;7.43;2.00;;;;;;;;;;5017749;28;20458;-79
2022/11/06 07:29:55;;;;;;;13.52;2.13;;;;;;;;;;5017785;28;20037;-79
2022/11/06 07:32:21;;;;;;;6.35;1.90;;;;;;;;;;5035981;28;20041;-79
2022/11/06 07:34:47;;;;;;;9.57;1.95;;;;;;;;;;5049659;28;20029;-79
2022/11/06 07:37:13;;;;;;;11.88;2.03;;;;;;;;;;5035957;28;20022;-79
2022/11/06 07:39:39;;;;;;;9.25;1.92;;;;;;;;;;5023653;28;20022;-79
2022/11/06 07:42:05;;;;;;;9.98;1.77;;;;;;;;;;5026436;28;20085;-79
2022/11/06 07:44:31;;;;;;;7.50;1.75;;;;;;;;;;5026579;28;20033;-79
2022/11/06 07:46:57;;;;;;;8.68;1.88;;;;;;;;;;5030352;28;20048;-79
2022/11/06 07:49:23;;;;;;;6.93;1.95;;;;;;;;;;5034675;28;20026;-79
2022/11/06 07:51:49;;;;;;;7.70;1.88;;;;;;;;;;5031526;28;20030;-79
2022/11/06 07:54:15;;;;;;;10.68;1.92;;;;;;;;;;4997168;28;20146;-79
2022/11/06 07:56:41;;;;;;;8.10;1.73;;;;;;;;;;5026842;28;20022;-78
2022/11/06 07:59:07;;;;;;;9.55;2.33;;;;;;;;;;5023200;28;20030;-79
2022/11/06 08:01:33;;;;;;;7.45;2.40;;;;;;;;;;5000876;28;20029;-79
2022/11/06 08:03:59;;;;;;;5.25;1.60;;;;;;;;;;5025580;28;20419;-79
2022/11/06 08:06:25;;;;;;;12.60;1.95;;;;;;;;;;5035426;28;20426;-79
2022/11/06 08:08:51;;;;;;;5.00;1.80;;;;;;;;;;5030781;28;20476;-79
2022/11/06 08:11:18;;;;;;;7.47;1.85;;;;;;;;;;5028988;28;20030;-79
2022/11/06 08:13:44;;;;;;;6.05;1.83;;;;;;;;;;5035618;28;20036;-80
2022/11/06 08:16:11;;;;;;;7.38;2.08;;;;;;;;;;5022022;28;20033;-78
2022/11/06 08:18:38;;;;;;;10.48;1.98;;;;;;;;;;5031669;28;20024;-80
2022/11/06 08:21:05;;;;;;;8.93;3.05;;;;;;;;;;4997786;28;20460;-80
2022/11/06 08:23:32;;;;;;;10.27;2.38;;;;;;;;;;5013263;28;20036;-80
2022/11/06 08:25:59;;;;;;;6.93;1.70;;;;;;;;;;5017129;28;20072;-79
2022/11/06 08:28:25;;;;;;;8.60;1.80;;;;;;;;;;5020407;28;20044;-80
2022/11/06 08:30:52;;;;;;;7.68;1.75;;;;;;;;;;5034013;28;20049;-80
2022/11/06 08:33:18;;;;;;;11.02;1.85;;;;;;;;;;5035039;28;20057;-80
2022/11/06 08:35:44;;;;;;;10.20;1.52;;;;;;;;;;5007461;28;20045;-80
2022/11/06 08:38:10;;;;;;;6.45;1.77;;;;;;;;;;5034726;28;20029;-79
2022/11/06 08:40:37;;;;;;;8.20;2.00;;;;;;;;;;5028244;28;20350;-80
2022/11/06 08:43:04;;;;;;;6.75;1.50;;;;;;;;;;5030841;28;20089;-80
2022/11/06 08:45:37;;;;;;;7.95;1.85;;;;;;;;;;5033492;28;20108;-79
2022/11/06 08:48:03;;;;;;;8.63;2.00;;;;;;;;;;5014950;28;20033;-79
2022/11/06 08:50:30;;;;;;;5.60;1.60;;;;;;;;;;5029494;28;20041;-80
2022/11/06 08:52:57;;;;;;;6.95;1.80;;;;;;;;;;4998709;28;20392;-79
2022/11/06 08:55:23;;;;;;;11.93;1.80;;;;;;;;;;5032857;28;20132;-80
2022/11/06 08:57:49;;;;;;;6.15;1.60;;;;;;;;;;5023658;28;20523;-79
2022/11/06 09:00:15;;;;;;;9.02;1.80;;;;;;;;;;5023656;28;20056;-79
2022/11/06 09:02:41;;;;;;;8.32;1.77;;;;;;;;;;5016293;28;20055;-80
2022/11/06 09:05:08;;;;;;;6.60;1.60;;;;;;;;;;5029523;28;20030;-81
2022/11/06 09:07:34;;;;;;;8.05;1.70;;;;;;;;;;5031435;28;20044;-80
2022/11/06 09:10:00;;;;;;;9.23;2.03;;;;;;;;;;5025207;28;20022;-80
2022/11/06 09:12:26;;;;;;;4.68;1.65;;;;;;;;;;5029420;28;20029;-80
2022/11/06 09:14:52;;;;;;;5.10;1.30;;;;;;;;;;5016239;28;20033;-81
2022/11/06 09:17:22;;;;;;;3.60;1.50;;;;;;;;;;5034172;28;20029;-80
2022/11/06 09:19:48;;;;;;;5.97;1.58;;;;;;;;;;5000337;28;20032;-79
2022/11/06 09:22:14;;;;;;;7.50;1.65;;;;;;;;;;5031694;28;20435;-79
2022/11/06 09:24:40;;;;;;;6.13;1.45;;;;;;;;;;5033730;28;20068;-79
2022/11/06 09:27:06;;;;;;;9.32;2.58;;;;;;;;;;5016085;28;20038;-79
2022/11/06 09:29:32;;;;;;;7.78;2.13;;;;;;;;;;5016485;28;20073;-79
2022/11/06 09:31:58;;;;;;;5.82;1.70;;;;;;;;;;5016090;28;20037;-79
2022/11/06 09:34:24;;;;;;;10.55;1.70;;;;;;;;;;5033798;28;20026;-79
2022/11/06 09:36:50;;;;;;;9.00;2.97;;;;;;;;;;5033208;28;20025;-79
2022/11/06 09:39:16;;;;;;;7.43;1.73;;;;;;;;;;5027902;28;20022;-79
2022/11/06 09:42:03;;;;;;;8.45;2.53;;;;;;;;;;4993183;28;20022;-79
2022/11/06 09:44:30;;;;;;;9.13;2.38;;;;;;;;;;4996276;28;20026;-78
2022/11/06 09:46:56;;;;;;;6.07;1.20;;;;;;;;;;5022856;28;20108;-78
2022/11/06 09:49:35;;;;;;;8.98;1.75;;;;;;;;;;5024079;28;20022;-78
2022/11/06 09:52:18;;;;;;;8.90;1.70;;;;;;;;;;5023222;28;20076;-77
2022/11/06 09:54:47;;;;;;;7.28;1.83;;;;;;;;;;5025330;28;20038;-77
2022/11/06 09:57:19;;;;;;;7.55;1.45;;;;;;;;;;5030663;28;20487;-78
2022/11/06 09:59:46;;;;;;;5.00;1.50;;;;;;;;;;5031881;28;20464;-79
2022/11/06 10:02:26;;;;;;;4.18;1.30;;;;;;;;;;5032231;28;20033;-77
2022/11/06 10:04:55;;;;;;;4.68;1.50;;;;;;;;;;5024230;28;20037;-77
2022/11/06 10:07:27;;;;;;;5.38;1.40;;;;;;;;;;5028021;28;20029;-77
2022/11/06 10:09:53;;;;;;;4.65;1.40;;;;;;;;;;5019730;28;20025;-77
2022/11/06 10:12:28;;;;;;;7.20;1.40;;;;;;;;;;5023672;28;20036;-77
2022/11/06 10:14:54;;;;;;;8.65;1.73;;;;;;;;;;5020812;28;20488;-78
2022/11/06 10:17:24;;;;;;;3.45;1.10;;;;;;;;;;5026202;28;20046;-77
2022/11/06 10:20:04;;;;;;;8.07;1.50;;;;;;;;;;5006445;28;20064;-77
2022/11/06 10:22:33;;;;;;;8.70;1.50;;;;;;;;;;5017707;28;20022;-77
2022/11/06 10:25:08;;;;;;;5.03;1.55;;;;;;;;;;5026260;28;20414;-77
2022/11/06 10:27:40;;;;;;;5.90;1.30;;;;;;;;;;5028700;28;20065;-77
2022/11/06 10:30:08;;;;;;;8.23;1.35;;;;;;;;;;5017252;28;20022;-77
2022/11/06 10:32:41;;;;;;;6.13;1.75;;;;;;;;;;4999996;28;20049;-77
2022/11/06 10:35:30;;;;;;;4.85;1.30;;;;;;;;;;5011955;28;20038;-77
2022/11/06 10:37:56;;;;;;;7.03;1.40;;;;;;;;;;5030730;28;20092;-76
2022/11/06 10:40:25;;;;;;;6.63;1.73;;;;;;;;;;5027079;28;20449;-77
2022/11/06 10:43:17;;;;;;;13.32;1.90;;;;;;;;;;5025515;28;20029;-78
2022/11/06 10:45:46;;;;;;;6.38;1.05;;;;;;;;;;5015033;28;20054;-77
2022/11/06 10:48:22;;;;;;;3.55;1.13;;;;;;;;;;5015331;28;20495;-77
2022/11/06 10:51:08;;;;;;;5.30;1.42;;;;;;;;;;5031764;28;20028;-77
2022/11/06 10:53:41;;;;;;;8.35;2.10;;;;;;;;;;5033590;28;20397;-78
2022/11/06 10:56:18;;;;;;;6.18;1.63;;;;;;;;;;5033548;28;20029;-76
2022/11/06 10:58:44;;;;;;;4.57;1.83;;;;;;;;;;5026279;28;20029;-77
2022/11/06 11:01:13;;;;;;;7.25;1.20;;;;;;;;;;5032696;28;20026;-78
2022/11/06 11:03:41;;;;;;;6.35;1.40;;;;;;;;;;4998969;28;20380;-79
2022/11/06 11:06:07;;;;;;;5.95;1.50;;;;;;;;;;5017014;28;20026;-79
2022/11/06 11:08:39;;;;;;;4.85;1.33;;;;;;;;;;5015762;28;20511;-79
2022/11/06 11:11:14;;;;;;;11.67;2.13;;;;;;;;;;5011320;28;20034;-79
2022/11/06 11:13:41;;;;;;;4.43;1.65;;;;;;;;;;5036039;28;20040;-79
2022/11/06 11:16:30;;;;;;;7.32;1.90;;;;;;;;;;5035681;28;20415;-79
2022/11/06 11:19:13;;;;;;;5.55;2.15;;;;;;;;;;5008442;28;20030;-79
2022/11/06 11:21:51;;;;;;;5.15;1.70;;;;;;;;;;5014843;28;20022;-79
2022/11/06 11:24:17;;;;;;;5.50;2.13;;;;;;;;;;5033212;28;20038;-79
2022/11/06 11:26:47;;;;;;;7.03;3.50;;;;;;;;;;5055283;28;20045;-78
2022/11/06 11:29:15;;;;;;;7.65;3.47;;;;;;;;;;5037410;28;20075;-78
2022/11/06 11:31:44;;;;;;;4.72;1.50;;;;;;;;;;5031830;28;20021;-79
2022/11/06 11:34:15;;;;;;;4.32;1.55;;;;;;;;;;5035250;28;20025;-79
2022/11/06 11:36:52;;;;;;;9.68;2.45;;;;;;;;;;5026233;28;20030;-79
2022/11/06 11:39:20;;;;;;;8.35;1.38;;;;;;;;;;5015710;28;20101;-78
2022/11/06 11:41:46;;;;;;;8.23;2.50;;;;;;;;;;5016263;28;20106;-79
2022/11/06 11:44:16;;;;;;;5.18;2.40;;;;;;;;;;5016181;28;20469;-79
2022/11/06 11:46:52;;;;;;;10.70;2.00;;;;;;;;;;5032884;28;20076;-78
2022/11/06 11:49:28;;;;;;;5.57;1.80;;;;;;;;;;5035547;28;20025;-79
2022/11/06 11:51:55;;;;;;;12.98;3.80;;;;;;;;;;5035794;28;20026;-79
2022/11/06 11:54:25;;;;;;;9.10;3.60;;;;;;;;;;5014456;28;20029;-79
2022/11/06 11:56:55;;;;;;;7.10;3.30;;;;;;;;;;5015940;28;20113;-78
2022/11/06 11:59:23;;;;;;;8.13;1.98;;;;;;;;;;5007530;28;20407;-78
2022/11/06 12:01:49;;;;;;;7.70;2.08;;;;;;;;;;5035440;28;20409;-78
2022/11/06 12:04:15;;;;;;;6.32;1.30;;;;;;;;;;5017180;28;20022;-79
2022/11/06 12:06:52;;;;;;;5.07;2.30;;;;;;;;;;5035501;28;20022;-79
2022/11/06 12:09:18;;;;;;;7.03;1.50;;;;;;;;;;5035040;28;20433;-78
2022/11/06 12:11:45;;;;;;;6.75;2.20;;;;;;;;;;5034338;28;20025;-79
2022/11/06 12:14:31;;;;;;;4.60;1.40;;;;;;;;;;5035269;28;20050;-78
2022/11/06 12:17:06;;;;;;;7.30;1.23;;;;;;;;;;5035286;28;20075;-79
2022/11/06 12:19:33;;;;;;;9.32;1.40;;;;;;;;;;5035248;28;20030;-79
2022/11/06 12:22:03;;;;;;;8.07;1.50;;;;;;;;;;5035368;28;20071;-78
2022/11/06 12:24:35;;;;;;;4.25;1.05;;;;;;;;;;5035117;28;20055;-78
2022/11/06 12:27:10;;;;;;;7.35;1.20;;;;;;;;;;5035003;28;20042;-79
2022/11/06 12:29:39;;;;;;;7.03;1.35;;;;;;;;;;5035184;28;20051;-78
2022/11/06 12:32:23;;;;;;;7.22;2.05;;;;;;;;;;5035164;28;20022;-79
2022/11/06 12:34:58;;;;;;;7.50;1.58;;;;;;;;;;5034709;28;20578;-78
2022/11/06 12:37:24;;;;;;;6.47;1.17;;;;;;;;;;5020123;28;20130;-79
2022/11/06 12:40:13;;;;;;;8.48;1.23;;;;;;;;;;5045652;28;20025;-78
2022/11/06 12:42:41;;;;;;;6.00;1.60;;;;;;;;;;5045332;28;20033;-79
2022/11/06 12:45:11;;;;;;;4.38;1.58;;;;;;;;;;5008704;28;20480;-79
2022/11/06 12:47:45;;;;;;;9.18;1.30;;;;;;;;;;5024795;28;20026;-79
2022/11/06 12:50:17;;;;;;;8.45;1.50;;;;;;;;;;5030293;28;20649;-79
2022/11/06 12:52:43;;;;;;;5.10;1.38;;;;;;;;;;5030713;28;20444;-79
2022/11/06 12:55:15;;;;;;;5.32;1.77;;;;;;;;;;5035830;28;20034;-79
2022/11/06 12:57:49;;;;;;;5.55;1.13;;;;;;;;;;5034197;28;20371;-79
2022/11/06 13:00:24;;;;;;;8.63;1.75;;;;;;;;;;5037084;28;20018;-79
2022/11/06 13:02:59;;;;;;;6.60;1.40;;;;;;;;;;5016323;28;20026;-79
2022/11/06 13:05:39;;;;;;;8.82;2.67;;;;;;;;;;4997055;28;20034;-79
2022/11/06 13:08:12;;;;;;;6.85;2.70;;;;;;;;;;5033050;28;20053;-79
2022/11/06 13:10:58;;;;;;;7.13;1.20;;;;;;;;;;5040850;28;20017;-78
2022/11/06 13:13:33;;;;;;;6.38;1.30;;;;;;;;;;5014618;28;20380;-79
2022/11/06 13:16:03;;;;;;;7.82;1.13;;;;;;;;;;5040325;28;20036;-79
2022/11/06 13:18:48;;;;;;;3.13;1.00;;;;;;;;;;5021416;28;20022;-82
2022/11/06 13:21:14;;;;;;;5.07;1.80;;;;;;;;;;5016060;28;20029;-82
2022/11/06 13:23:49;;;;;;;8.95;1.70;;;;;;;;;;5033920;28;20025;-82
2022/11/06 13:26:18;;;;;;;11.32;1.67;;;;;;;;;;5009432;28;20049;-81
2022/11/06 13:28:45;;;;;;;7.72;1.42;;;;;;;;;;5009776;28;20022;-82
2022/11/06 13:31:12;;;;;;;5.55;1.42;;;;;;;;;;4999394;28;20492;-82
2022/11/06 13:33:43;;;;;;;5.55;1.70;;;;;;;;;;5007345;28;20034;-82
2022/11/06 13:36:09;;;;;;;4.47;1.30;;;;;;;;;;5014081;28;20030;-82
2022/11/06 13:38:41;;;;;;;3.10;1.30;;;;;;;;;;5006263;28;20027;-82
2022/11/06 13:41:11;;;;;;;7.23;1.00;;;;;;;;;;5014133;28;20068;-82
2022/11/06 13:43:41;;;;;;;9.00;1.30;;;;;;;;;;5013136;28;20401;-81
2022/11/06 13:46:19;;;;;;;5.05;1.50;;;;;;;;;;5013674;28;20022;-81
2022/11/06 13:49:03;;;;;;;7.55;1.15;;;;;;;;;;4992266;28;20035;-82
2022/11/06 13:51:42;;;;;;;5.68;1.20;;;;;;;;;;4993307;28;20030;-81
2022/11/06 13:54:26;;;;;;;4.72;1.13;;;;;;;;;;5000924;28;20042;-81
2022/11/06 13:56:55;;;;;;;11.70;1.30;;;;;;;;;;5013472;28;20021;-81
2022/11/06 13:59:35;;;;;;;4.38;1.23;;;;;;;;;;5003580;28;20081;-82
2022/11/06 14:02:27;;;;;;;8.38;1.20;;;;;;;;;;5006554;28;20014;-79
2022/11/06 14:05:05;;;;;;;5.32;1.10;;;;;;;;;;5000098;28;20030;-82
2022/11/06 14:07:32;;;;;;;7.75;2.55;;;;;;;;;;4989379;28;20030;-81
2022/11/06 14:09:58;;;;;;;17.85;5.50;;;;;;;;;;4993905;28;20026;-82
2022/11/06 14:12:25;;;;;;;11.27;4.50;;;;;;;;;;4993872;28;20030;-82
2022/11/06 14:14:54;;;;;;;17.00;5.60;;;;;;;;;;4990871;28;20034;-82
2022/11/06 14:17:22;;;;;;;10.55;1.88;;;;;;;;;;4981905;28;20019;-81
2022/11/06 14:19:50;;;;;;;6.57;1.88;;;;;;;;;;4993239;28;20050;-82
2022/11/06 14:22:25;;;;;;;15.93;3.30;;;;;;;;;;4993692;28;20428;-82
2022/11/06 14:24:52;;;;;;;10.75;5.35;;;;;;;;;;4993493;28;20138;-81
2022/11/06 14:27:18;;;;;;;7.13;2.60;;;;;;;;;;5020002;28;20084;-81
2022/11/06 14:29:55;;;;;;;13.40;3.38;;;;;;;;;;5026050;28;20029;-82
2022/11/06 14:32:21;;;;;;;5.82;1.92;;;;;;;;;;5002096;28;20065;-82
2022/11/06 14:34:47;;;;;;;12.38;3.47;;;;;;;;;;5051889;28;20056;-82
2022/11/06 14:37:16;;;;;;;13.38;3.50;;;;;;;;;;5038835;28;20017;-83
2022/11/06 14:39:51;;;;;;;10.90;3.42;;;;;;;;;;5032357;28;20030;-82
2022/11/06 14:42:24;;;;;;;13.90;4.65;;;;;;;;;;5035075;28;20060;-81
2022/11/06 14:44:53;;;;;;;8.55;3.35;;;;;;;;;;5031739;28;20028;-81
2022/11/06 14:47:30;;;;;;;12.13;3.67;;;;;;;;;;5023215;28;20376;-82
2022/11/06 14:49:58;;;;;;;11.88;3.10;;;;;;;;;;5023006;28;20041;-82
2022/11/06 14:52:25;;;;;;;11.10;2.70;;;;;;;;;;5017870;28;20025;-81
2022/11/06 14:54:59;;;;;;;11.45;2.88;;;;;;;;;;5014757;28;20061;-82
2022/11/06 14:57:40;;;;;;;11.82;2.20;;;;;;;;;;5027040;28;20022;-82
2022/11/06 15:00:07;;;;;;;8.85;2.28;;;;;;;;;;5030891;28;20148;-82
2022/11/06 15:02:36;;;;;;;9.65;2.40;;;;;;;;;;5003833;28;20467;-82
2022/11/06 15:05:06;;;;;;;8.30;2.70;;;;;;;;;;5030090;28;20034;-80
2022/11/06 15:07:34;;;;;;;7.13;1.75;;;;;;;;;;5022420;28;20033;-81